sensor_id;sensor_type;location;lat;lon;timestamp;temperature;humidity
58339;DHT22;48278;52.704;6.536;2022-09-21T00:00:49;7.10;99.90
58339;DHT22;48278;52.704;6.536;2022-09-21T00:03:15;7.00;99.90
58339;DHT22;48278;52.704;6.536;2022-09-21T00:05:41;7.10;99.90
58339;DHT22;48278;52.704;6.536;2022-09-21T00:08:10;7.00;99.90
58339;DHT22;48278;52.704;6.536;2022-09-21T00:10:37;7.00;99.90
58339;DHT22;48278;52.704;6.536;2022-09-21T00:13:03;7.00;99.90
58339;DHT22;48278;52.704;6.536;2022-09-21T00:15:30;6.90;99.90
58339;DHT22;48278;52.704;6.536;2022-09-21T00:17:57;6.90;99.90
58339;DHT22;48278;52.704;6.536;2022-09-21T00:20:24;6.90;99.90
58339;DHT22;48278;52.704;6.536;2022-09-21T00:22:51;6.90;99.90
58339;DHT22;48278;52.704;6.536;2022-09-21T00:25:18;6.90;99.90
58339;DHT22;48278;52.704;6.536;2022-09-21T00:27:44;6.90;99.90
58339;DHT22;48278;52.704;6.536;2022-09-21T00:30:16;6.90;99.90
58339;DHT22;48278;52.704;6.536;2022-09-21T00:32:42;6.80;99.90
58339;DHT22;48278;52.704;6.536;2022-09-21T00:35:08;6.80;99.90
58339;DHT22;48278;52.704;6.536;2022-09-21T00:37:34;6.90;99.90
58339;DHT22;48278;52.704;6.536;2022-09-21T00:40:01;6.80;99.90
58339;DHT22;48278;52.704;6.536;2022-09-21T00:42:30;6.80;99.90
58339;DHT22;48278;52.704;6.536;2022-09-21T00:44:57;6.80;99.90
58339;DHT22;48278;52.704;6.536;2022-09-21T00:47:41;6.80;99.90
58339;DHT22;48278;52.704;6.536;2022-09-21T00:50:14;6.80;99.90
58339;DHT22;48278;52.704;6.536;2022-09-21T00:52:43;6.80;99.90
58339;DHT22;48278;52.704;6.536;2022-09-21T00:55:11;6.80;99.90
58339;DHT22;48278;52.704;6.536;2022-09-21T00:57:40;6.80;99.90
58339;DHT22;48278;52.704;6.536;2022-09-21T01:00:09;6.70;99.90
58339;DHT22;48278;52.704;6.536;2022-09-21T01:02:36;6.80;99.90
58339;DHT22;48278;52.704;6.536;2022-09-21T01:05:07;6.70;99.90
58339;DHT22;48278;52.704;6.536;2022-09-21T01:07:37;6.70;99.90
58339;DHT22;48278;52.704;6.536;2022-09-21T01:10:10;6.80;99.90
58339;DHT22;48278;52.704;6.536;2022-09-21T01:12:50;6.70;99.90
58339;DHT22;48278;52.704;6.536;2022-09-21T01:32:13;6.50;99.90
58339;DHT22;48278;52.704;6.536;2022-09-21T01:35:45;6.50;99.90
58339;DHT22;48278;52.704;6.536;2022-09-21T01:38:02;6.50;99.90
58339;DHT22;48278;52.704;6.536;2022-09-21T01:40:37;6.40;99.90
58339;DHT22;48278;52.704;6.536;2022-09-21T01:43:05;6.40;99.90
58339;DHT22;48278;52.704;6.536;2022-09-21T01:45:37;6.40;99.90
58339;DHT22;48278;52.704;6.536;2022-09-21T01:48:05;6.40;99.90
58339;DHT22;48278;52.704;6.536;2022-09-21T01:50:36;6.30;99.90
58339;DHT22;48278;52.704;6.536;2022-09-21T01:53:16;6.30;99.90
58339;DHT22;48278;52.704;6.536;2022-09-21T01:55:50;6.30;99.90
58339;DHT22;48278;52.704;6.536;2022-09-21T02:00:53;6.20;99.90
58339;DHT22;48278;52.704;6.536;2022-09-21T02:06:00;6.20;99.90
58339;DHT22;48278;52.704;6.536;2022-09-21T02:08:29;6.20;99.90
58339;DHT22;48278;52.704;6.536;2022-09-21T02:11:01;6.20;99.90
58339;DHT22;48278;52.704;6.536;2022-09-21T02:13:36;6.10;99.90
58339;DHT22;48278;52.704;6.536;2022-09-21T02:24:26;6.10;99.90
58339;DHT22;48278;52.704;6.536;2022-09-21T02:32:32;6.00;99.90
58339;DHT22;48278;52.704;6.536;2022-09-21T02:35:13;6.00;99.90
58339;DHT22;48278;52.704;6.536;2022-09-21T02:37:48;5.90;99.90
58339;DHT22;48278;52.704;6.536;2022-09-21T02:40:39;5.90;99.90
58339;DHT22;48278;52.704;6.536;2022-09-21T02:43:13;5.90;99.90
58339;DHT22;48278;52.704;6.536;2022-09-21T02:45:50;5.90;99.90
58339;DHT22;48278;52.704;6.536;2022-09-21T02:48:21;5.90;99.90
58339;DHT22;48278;52.704;6.536;2022-09-21T02:50:55;5.90;99.90
58339;DHT22;48278;52.704;6.536;2022-09-21T02:53:32;5.90;99.90
58339;DHT22;48278;52.704;6.536;2022-09-21T02:56:01;5.80;99.90
58339;DHT22;48278;52.704;6.536;2022-09-21T02:58:43;5.80;99.90
58339;DHT22;48278;52.704;6.536;2022-09-21T03:01:11;5.80;99.90
58339;DHT22;48278;52.704;6.536;2022-09-21T03:03:38;5.80;99.90
58339;DHT22;48278;52.704;6.536;2022-09-21T03:06:04;5.80;99.90
58339;DHT22;48278;52.704;6.536;2022-09-21T03:08:30;5.80;99.90
58339;DHT22;48278;52.704;6.536;2022-09-21T03:10:56;5.80;99.90
58339;DHT22;48278;52.704;6.536;2022-09-21T03:13:22;5.80;99.90
58339;DHT22;48278;52.704;6.536;2022-09-21T03:15:49;5.80;99.90
58339;DHT22;48278;52.704;6.536;2022-09-21T03:18:15;5.80;99.90
58339;DHT22;48278;52.704;6.536;2022-09-21T03:20:43;5.70;99.90
58339;DHT22;48278;52.704;6.536;2022-09-21T03:23:13;5.70;99.90
58339;DHT22;48278;52.704;6.536;2022-09-21T03:25:39;5.70;99.90
58339;DHT22;48278;52.704;6.536;2022-09-21T03:28:05;5.60;99.90
58339;DHT22;48278;52.704;6.536;2022-09-21T03:30:31;5.60;99.90
58339;DHT22;48278;52.704;6.536;2022-09-21T03:32:57;5.60;99.90
58339;DHT22;48278;52.704;6.536;2022-09-21T03:35:23;5.60;99.90
58339;DHT22;48278;52.704;6.536;2022-09-21T03:37:52;5.50;99.90
58339;DHT22;48278;52.704;6.536;2022-09-21T03:40:19;5.50;99.90
58339;DHT22;48278;52.704;6.536;2022-09-21T03:42:45;5.50;99.90
58339;DHT22;48278;52.704;6.536;2022-09-21T03:45:11;5.50;99.90
58339;DHT22;48278;52.704;6.536;2022-09-21T03:47:38;5.50;99.90
58339;DHT22;48278;52.704;6.536;2022-09-21T03:50:05;5.50;99.90
58339;DHT22;48278;52.704;6.536;2022-09-21T03:52:31;5.50;99.90
58339;DHT22;48278;52.704;6.536;2022-09-21T03:54:57;5.50;99.90
58339;DHT22;48278;52.704;6.536;2022-09-21T03:57:23;5.50;99.90
58339;DHT22;48278;52.704;6.536;2022-09-21T03:59:49;5.40;99.90
58339;DHT22;48278;52.704;6.536;2022-09-21T04:02:15;5.40;99.90
58339;DHT22;48278;52.704;6.536;2022-09-21T04:04:41;5.40;99.90
58339;DHT22;48278;52.704;6.536;2022-09-21T04:07:07;5.30;99.90
58339;DHT22;48278;52.704;6.536;2022-09-21T04:09:33;5.30;99.90
58339;DHT22;48278;52.704;6.536;2022-09-21T04:11:59;5.30;99.90
58339;DHT22;48278;52.704;6.536;2022-09-21T04:14:24;5.30;99.90
58339;DHT22;48278;52.704;6.536;2022-09-21T04:16:50;5.30;99.90
58339;DHT22;48278;52.704;6.536;2022-09-21T04:19:17;5.30;99.90
58339;DHT22;48278;52.704;6.536;2022-09-21T04:21:43;5.20;99.90
58339;DHT22;48278;52.704;6.536;2022-09-21T04:24:09;5.20;99.90
58339;DHT22;48278;52.704;6.536;2022-09-21T04:26:35;5.20;99.90
58339;DHT22;48278;52.704;6.536;2022-09-21T04:29:03;5.20;99.90
58339;DHT22;48278;52.704;6.536;2022-09-21T04:31:29;5.20;99.90
58339;DHT22;48278;52.704;6.536;2022-09-21T04:33:57;5.20;99.90
58339;DHT22;48278;52.704;6.536;2022-09-21T04:36:24;5.20;99.90
58339;DHT22;48278;52.704;6.536;2022-09-21T04:38:50;5.10;99.90
58339;DHT22;48278;52.704;6.536;2022-09-21T04:41:17;5.10;99.90
58339;DHT22;48278;52.704;6.536;2022-09-21T04:43:47;5.10;99.90
58339;DHT22;48278;52.704;6.536;2022-09-21T04:46:14;5.10;99.90
58339;DHT22;48278;52.704;6.536;2022-09-21T04:48:41;5.00;99.90
58339;DHT22;48278;52.704;6.536;2022-09-21T04:51:07;5.00;99.90
58339;DHT22;48278;52.704;6.536;2022-09-21T04:53:35;5.00;99.90
58339;DHT22;48278;52.704;6.536;2022-09-21T04:56:02;5.00;99.90
58339;DHT22;48278;52.704;6.536;2022-09-21T04:58:28;4.90;99.90
58339;DHT22;48278;52.704;6.536;2022-09-21T05:00:54;4.90;99.90
58339;DHT22;48278;52.704;6.536;2022-09-21T05:03:21;4.90;99.90
58339;DHT22;48278;52.704;6.536;2022-09-21T05:05:51;4.90;99.90
58339;DHT22;48278;52.704;6.536;2022-09-21T05:08:18;4.80;99.90
58339;DHT22;48278;52.704;6.536;2022-09-21T05:11:02;4.90;99.90
58339;DHT22;48278;52.704;6.536;2022-09-21T05:13:28;4.90;99.90
58339;DHT22;48278;52.704;6.536;2022-09-21T05:15:53;4.90;99.90
58339;DHT22;48278;52.704;6.536;2022-09-21T05:18:19;4.90;99.90
58339;DHT22;48278;52.704;6.536;2022-09-21T05:20:45;5.00;99.90
58339;DHT22;48278;52.704;6.536;2022-09-21T05:23:17;4.90;99.90
58339;DHT22;48278;52.704;6.536;2022-09-21T05:25:43;4.90;99.90
58339;DHT22;48278;52.704;6.536;2022-09-21T05:28:09;4.90;99.90
58339;DHT22;48278;52.704;6.536;2022-09-21T05:30:35;4.90;99.90
58339;DHT22;48278;52.704;6.536;2022-09-21T05:33:02;4.90;99.90
58339;DHT22;48278;52.704;6.536;2022-09-21T05:35:47;4.90;99.90
58339;DHT22;48278;52.704;6.536;2022-09-21T05:38:19;4.90;99.90
58339;DHT22;48278;52.704;6.536;2022-09-21T05:40:45;4.90;99.90
58339;DHT22;48278;52.704;6.536;2022-09-21T05:43:15;4.90;99.90
58339;DHT22;48278;52.704;6.536;2022-09-21T05:45:48;5.00;99.90
58339;DHT22;48278;52.704;6.536;2022-09-21T05:48:22;5.00;99.90
58339;DHT22;48278;52.704;6.536;2022-09-21T05:50:59;5.00;99.90
58339;DHT22;48278;52.704;6.536;2022-09-21T05:55:56;5.10;99.90
58339;DHT22;48278;52.704;6.536;2022-09-21T05:58:55;5.10;99.90
58339;DHT22;48278;52.704;6.536;2022-09-21T06:04:33;5.20;99.90
58339;DHT22;48278;52.704;6.536;2022-09-21T06:06:59;5.20;99.90
58339;DHT22;48278;52.704;6.536;2022-09-21T06:09:25;5.30;99.90
58339;DHT22;48278;52.704;6.536;2022-09-21T06:11:52;5.30;99.90
58339;DHT22;48278;52.704;6.536;2022-09-21T06:14:18;5.30;99.90
58339;DHT22;48278;52.704;6.536;2022-09-21T06:16:50;5.30;99.90
58339;DHT22;48278;52.704;6.536;2022-09-21T06:19:16;5.40;99.90
58339;DHT22;48278;52.704;6.536;2022-09-21T06:21:42;5.50;99.90
58339;DHT22;48278;52.704;6.536;2022-09-21T06:24:08;5.50;99.90
58339;DHT22;48278;52.704;6.536;2022-09-21T06:26:34;5.60;99.90
58339;DHT22;48278;52.704;6.536;2022-09-21T06:28:59;5.60;99.90
58339;DHT22;48278;52.704;6.536;2022-09-21T06:31:26;5.70;99.90
58339;DHT22;48278;52.704;6.536;2022-09-21T06:33:52;5.70;99.90
58339;DHT22;48278;52.704;6.536;2022-09-21T06:36:18;5.80;99.90
58339;DHT22;48278;52.704;6.536;2022-09-21T06:38:43;5.80;99.90
58339;DHT22;48278;52.704;6.536;2022-09-21T06:41:10;5.90;99.90
58339;DHT22;48278;52.704;6.536;2022-09-21T06:43:36;5.90;99.90
58339;DHT22;48278;52.704;6.536;2022-09-21T06:46:02;6.00;99.90
58339;DHT22;48278;52.704;6.536;2022-09-21T06:48:29;6.10;99.90
58339;DHT22;48278;52.704;6.536;2022-09-21T06:50:59;6.20;99.90
58339;DHT22;48278;52.704;6.536;2022-09-21T06:53:26;6.30;99.90
58339;DHT22;48278;52.704;6.536;2022-09-21T06:55:53;6.40;99.90
58339;DHT22;48278;52.704;6.536;2022-09-21T06:58:18;6.40;99.90
58339;DHT22;48278;52.704;6.536;2022-09-21T07:00:44;6.50;99.90
58339;DHT22;48278;52.704;6.536;2022-09-21T07:03:11;6.70;99.90
58339;DHT22;48278;52.704;6.536;2022-09-21T07:05:38;6.70;99.90
58339;DHT22;48278;52.704;6.536;2022-09-21T07:08:04;6.90;99.90
58339;DHT22;48278;52.704;6.536;2022-09-21T07:10:30;7.00;99.90
58339;DHT22;48278;52.704;6.536;2022-09-21T07:13:01;7.10;99.90
58339;DHT22;48278;52.704;6.536;2022-09-21T07:15:27;7.20;99.90
58339;DHT22;48278;52.704;6.536;2022-09-21T07:17:54;7.30;99.90
58339;DHT22;48278;52.704;6.536;2022-09-21T07:20:20;7.40;99.90
58339;DHT22;48278;52.704;6.536;2022-09-21T07:22:46;7.60;99.90
58339;DHT22;48278;52.704;6.536;2022-09-21T07:25:12;7.70;99.90
58339;DHT22;48278;52.704;6.536;2022-09-21T07:27:38;7.70;99.90
58339;DHT22;48278;52.704;6.536;2022-09-21T07:30:05;7.90;99.90
58339;DHT22;48278;52.704;6.536;2022-09-21T07:32:31;8.00;99.90
58339;DHT22;48278;52.704;6.536;2022-09-21T07:34:57;8.20;99.90
58339;DHT22;48278;52.704;6.536;2022-09-21T07:37:26;8.30;99.90
58339;DHT22;48278;52.704;6.536;2022-09-21T07:39:52;8.50;99.90
58339;DHT22;48278;52.704;6.536;2022-09-21T07:42:19;8.60;99.90
58339;DHT22;48278;52.704;6.536;2022-09-21T07:44:47;8.70;99.90
58339;DHT22;48278;52.704;6.536;2022-09-21T07:47:13;8.90;99.90
58339;DHT22;48278;52.704;6.536;2022-09-21T07:49:39;9.00;99.90
58339;DHT22;48278;52.704;6.536;2022-09-21T07:52:06;9.20;99.90
58339;DHT22;48278;52.704;6.536;2022-09-21T07:54:34;9.30;99.90
58339;DHT22;48278;52.704;6.536;2022-09-21T07:56:59;9.30;99.90
58339;DHT22;48278;52.704;6.536;2022-09-21T07:59:44;9.40;99.90
58339;DHT22;48278;52.704;6.536;2022-09-21T08:02:11;9.40;99.90
58339;DHT22;48278;52.704;6.536;2022-09-21T08:04:37;9.50;99.90
58339;DHT22;48278;52.704;6.536;2022-09-21T08:07:03;9.60;99.90
58339;DHT22;48278;52.704;6.536;2022-09-21T08:09:29;9.70;99.90
58339;DHT22;48278;52.704;6.536;2022-09-21T08:11:55;9.80;99.90
58339;DHT22;48278;52.704;6.536;2022-09-21T08:14:21;9.80;99.90
58339;DHT22;48278;52.704;6.536;2022-09-21T08:16:47;9.90;99.90
58339;DHT22;48278;52.704;6.536;2022-09-21T08:19:16;10.00;99.90
58339;DHT22;48278;52.704;6.536;2022-09-21T08:21:42;10.20;99.90
58339;DHT22;48278;52.704;6.536;2022-09-21T08:24:09;10.30;99.90
58339;DHT22;48278;52.704;6.536;2022-09-21T08:26:35;10.40;99.90
58339;DHT22;48278;52.704;6.536;2022-09-21T08:29:01;10.40;99.90
58339;DHT22;48278;52.704;6.536;2022-09-21T08:31:27;10.50;99.90
58339;DHT22;48278;52.704;6.536;2022-09-21T08:33:54;10.70;99.90
58339;DHT22;48278;52.704;6.536;2022-09-21T08:36:20;10.80;99.90
58339;DHT22;48278;52.704;6.536;2022-09-21T08:38:47;11.00;99.90
58339;DHT22;48278;52.704;6.536;2022-09-21T08:41:26;11.20;99.90
58339;DHT22;48278;52.704;6.536;2022-09-21T08:44:17;11.20;99.90
58339;DHT22;48278;52.704;6.536;2022-09-21T08:46:45;11.30;99.90
58339;DHT22;48278;52.704;6.536;2022-09-21T08:49:17;11.40;99.90
58339;DHT22;48278;52.704;6.536;2022-09-21T08:52:11;11.50;99.90
58339;DHT22;48278;52.704;6.536;2022-09-21T08:54:48;11.50;99.90
58339;DHT22;48278;52.704;6.536;2022-09-21T08:57:17;11.60;99.90
58339;DHT22;48278;52.704;6.536;2022-09-21T08:59:45;11.60;99.90
58339;DHT22;48278;52.704;6.536;2022-09-21T09:12:56;11.90;99.90
58339;DHT22;48278;52.704;6.536;2022-09-21T09:15:39;11.90;99.90
58339;DHT22;48278;52.704;6.536;2022-09-21T09:21:44;12.00;99.90
58339;DHT22;48278;52.704;6.536;2022-09-21T09:23:49;12.10;99.90
58339;DHT22;48278;52.704;6.536;2022-09-21T09:26:31;12.20;99.90
58339;DHT22;48278;52.704;6.536;2022-09-21T09:29:02;12.30;99.90
58339;DHT22;48278;52.704;6.536;2022-09-21T09:31:33;12.50;99.90
58339;DHT22;48278;52.704;6.536;2022-09-21T09:34:12;12.50;99.90
58339;DHT22;48278;52.704;6.536;2022-09-21T09:36:45;12.60;99.90
58339;DHT22;48278;52.704;6.536;2022-09-21T09:39:13;12.70;99.90
58339;DHT22;48278;52.704;6.536;2022-09-21T09:44:46;12.80;99.90
58339;DHT22;48278;52.704;6.536;2022-09-21T09:50:08;12.80;99.90
58339;DHT22;48278;52.704;6.536;2022-09-21T09:52:35;12.90;99.90
58339;DHT22;48278;52.704;6.536;2022-09-21T09:55:17;12.90;99.90
58339;DHT22;48278;52.704;6.536;2022-09-21T09:57:46;13.00;99.90
58339;DHT22;48278;52.704;6.536;2022-09-21T10:00:14;13.20;99.90
58339;DHT22;48278;52.704;6.536;2022-09-21T10:02:51;13.20;99.90
58339;DHT22;48278;52.704;6.536;2022-09-21T10:05:32;13.30;99.90
58339;DHT22;48278;52.704;6.536;2022-09-21T10:07:58;13.40;99.90
58339;DHT22;48278;52.704;6.536;2022-09-21T10:12:54;13.70;99.90
58339;DHT22;48278;52.704;6.536;2022-09-21T10:15:23;13.80;99.90
58339;DHT22;48278;52.704;6.536;2022-09-21T10:18:09;13.90;99.90
58339;DHT22;48278;52.704;6.536;2022-09-21T10:20:55;13.90;99.90
58339;DHT22;48278;52.704;6.536;2022-09-21T10:23:22;14.00;99.90
58339;DHT22;48278;52.704;6.536;2022-09-21T10:26:14;14.10;99.90
58339;DHT22;48278;52.704;6.536;2022-09-21T10:29:01;14.10;99.90
58339;DHT22;48278;52.704;6.536;2022-09-21T10:31:28;14.20;99.90
58339;DHT22;48278;52.704;6.536;2022-09-21T10:34:11;14.30;99.90
58339;DHT22;48278;52.704;6.536;2022-09-21T10:36:38;14.50;99.90
58339;DHT22;48278;52.704;6.536;2022-09-21T10:39:22;14.60;99.90
58339;DHT22;48278;52.704;6.536;2022-09-21T10:41:51;14.70;99.90
58339;DHT22;48278;52.704;6.536;2022-09-21T10:44:18;14.70;99.90
58339;DHT22;48278;52.704;6.536;2022-09-21T10:46:46;14.80;99.90
58339;DHT22;48278;52.704;6.536;2022-09-21T10:49:26;14.80;99.90
58339;DHT22;48278;52.704;6.536;2022-09-21T10:51:56;14.80;99.90
58339;DHT22;48278;52.704;6.536;2022-09-21T10:54:29;14.60;99.90
58339;DHT22;48278;52.704;6.536;2022-09-21T10:57:08;14.40;99.90
58339;DHT22;48278;52.704;6.536;2022-09-21T10:59:35;14.30;99.90
58339;DHT22;48278;52.704;6.536;2022-09-21T11:02:22;14.30;99.90
58339;DHT22;48278;52.704;6.536;2022-09-21T11:04:52;14.20;99.90
58339;DHT22;48278;52.704;6.536;2022-09-21T11:07:34;14.30;99.90
58339;DHT22;48278;52.704;6.536;2022-09-21T11:10:21;14.50;99.90
58339;DHT22;48278;52.704;6.536;2022-09-21T11:13:04;14.60;99.90
58339;DHT22;48278;52.704;6.536;2022-09-21T11:15:57;14.80;99.90
58339;DHT22;48278;52.704;6.536;2022-09-21T11:21:49;15.10;99.90
58339;DHT22;48278;52.704;6.536;2022-09-21T11:24:27;15.20;99.90
58339;DHT22;48278;52.704;6.536;2022-09-21T11:27:22;15.30;99.90
58339;DHT22;48278;52.704;6.536;2022-09-21T11:33:09;15.40;99.90
58339;DHT22;48278;52.704;6.536;2022-09-21T11:52:22;14.20;99.90
58339;DHT22;48278;52.704;6.536;2022-09-21T11:57:26;14.50;99.90
58339;DHT22;48278;52.704;6.536;2022-09-21T12:00:06;14.80;99.90
58339;DHT22;48278;52.704;6.536;2022-09-21T12:21:46;15.10;99.90
58339;DHT22;48278;52.704;6.536;2022-09-21T12:24:27;15.20;99.90
58339;DHT22;48278;52.704;6.536;2022-09-21T12:27:02;15.30;99.90
58339;DHT22;48278;52.704;6.536;2022-09-21T12:29:39;15.40;99.90
58339;DHT22;48278;52.704;6.536;2022-09-21T12:35:45;15.80;99.90
58339;DHT22;48278;52.704;6.536;2022-09-21T12:38:35;15.90;99.90
58339;DHT22;48278;52.704;6.536;2022-09-21T12:43:36;15.70;99.90
58339;DHT22;48278;52.704;6.536;2022-09-21T12:46:19;15.70;99.90
58339;DHT22;48278;52.704;6.536;2022-09-21T12:48:45;15.80;99.90
58339;DHT22;48278;52.704;6.536;2022-09-21T12:51:20;15.70;99.90
58339;DHT22;48278;52.704;6.536;2022-09-21T12:53:51;15.50;99.90
58339;DHT22;48278;52.704;6.536;2022-09-21T12:59:17;15.20;99.90
58339;DHT22;48278;52.704;6.536;2022-09-21T13:02:12;15.20;99.90
58339;DHT22;48278;52.704;6.536;2022-09-21T13:04:45;15.30;99.90
58339;DHT22;48278;52.704;6.536;2022-09-21T13:10:18;15.60;99.90
58339;DHT22;48278;52.704;6.536;2022-09-21T13:12:46;15.70;99.90
58339;DHT22;48278;52.704;6.536;2022-09-21T13:15:27;15.80;99.90
58339;DHT22;48278;52.704;6.536;2022-09-21T13:18:18;15.90;99.90
58339;DHT22;48278;52.704;6.536;2022-09-21T13:20:45;16.10;99.90
58339;DHT22;48278;52.704;6.536;2022-09-21T13:23:21;16.00;99.90
58339;DHT22;48278;52.704;6.536;2022-09-21T13:26:01;15.90;99.90
58339;DHT22;48278;52.704;6.536;2022-09-21T13:34:20;16.10;99.90
58339;DHT22;48278;52.704;6.536;2022-09-21T13:39:55;16.10;99.90
58339;DHT22;48278;52.704;6.536;2022-09-21T13:47:51;16.40;99.90
58339;DHT22;48278;52.704;6.536;2022-09-21T13:50:39;16.40;99.90
58339;DHT22;48278;52.704;6.536;2022-09-21T13:55:49;16.60;99.90
58339;DHT22;48278;52.704;6.536;2022-09-21T13:58:32;16.60;99.90
58339;DHT22;48278;52.704;6.536;2022-09-21T14:01:06;16.50;99.90
58339;DHT22;48278;52.704;6.536;2022-09-21T14:03:39;16.60;99.90
58339;DHT22;48278;52.704;6.536;2022-09-21T14:06:40;16.70;99.90
58339;DHT22;48278;52.704;6.536;2022-09-21T14:09:28;16.70;99.90
58339;DHT22;48278;52.704;6.536;2022-09-21T14:12:07;16.60;99.90
58339;DHT22;48278;52.704;6.536;2022-09-21T14:14:36;16.70;99.90
58339;DHT22;48278;52.704;6.536;2022-09-21T14:17:36;16.80;99.90
58339;DHT22;48278;52.704;6.536;2022-09-21T14:20:03;16.90;99.90
58339;DHT22;48278;52.704;6.536;2022-09-21T14:22:35;16.70;99.90
58339;DHT22;48278;52.704;6.536;2022-09-21T14:25:26;16.70;99.90
58339;DHT22;48278;52.704;6.536;2022-09-21T14:27:53;16.70;99.90
58339;DHT22;48278;52.704;6.536;2022-09-21T14:30:29;16.60;99.90
58339;DHT22;48278;52.704;6.536;2022-09-21T14:35:30;16.60;99.90
58339;DHT22;48278;52.704;6.536;2022-09-21T14:38:24;16.60;99.90
58339;DHT22;48278;52.704;6.536;2022-09-21T14:40:55;16.50;99.80
58339;DHT22;48278;52.704;6.536;2022-09-21T14:43:32;16.50;99.90
58339;DHT22;48278;52.704;6.536;2022-09-21T14:48:42;16.60;99.90
58339;DHT22;48278;52.704;6.536;2022-09-21T14:57:14;16.60;99.90
58339;DHT22;48278;52.704;6.536;2022-09-21T15:00:05;16.50;99.90
58339;DHT22;48278;52.704;6.536;2022-09-21T15:02:41;16.50;99.90
58339;DHT22;48278;52.704;6.536;2022-09-21T15:05:25;16.50;99.90
58339;DHT22;48278;52.704;6.536;2022-09-21T15:16:25;16.30;99.90
58339;DHT22;48278;52.704;6.536;2022-09-21T15:19:19;16.30;99.90
58339;DHT22;48278;52.704;6.536;2022-09-21T15:21:48;16.20;99.90
58339;DHT22;48278;52.704;6.536;2022-09-21T15:24:28;16.10;99.90
58339;DHT22;48278;52.704;6.536;2022-09-21T15:27:13;16.10;98.90
58339;DHT22;48278;52.704;6.536;2022-09-21T15:29:43;16.00;97.60
58339;DHT22;48278;52.704;6.536;2022-09-21T15:32:36;16.00;97.60
58339;DHT22;48278;52.704;6.536;2022-09-21T15:35:19;15.90;96.60
58339;DHT22;48278;52.704;6.536;2022-09-21T15:37:46;15.90;97.30
58339;DHT22;48278;52.704;6.536;2022-09-21T15:40:19;15.80;99.10
58339;DHT22;48278;52.704;6.536;2022-09-21T15:43:05;15.70;99.00
58339;DHT22;48278;52.704;6.536;2022-09-21T15:45:41;15.50;99.10
58339;DHT22;48278;52.704;6.536;2022-09-21T15:48:10;15.40;99.70
58339;DHT22;48278;52.704;6.536;2022-09-21T15:50:38;15.30;99.90
58339;DHT22;48278;52.704;6.536;2022-09-21T15:53:04;15.20;99.90
58339;DHT22;48278;52.704;6.536;2022-09-21T15:55:33;15.00;99.90
58339;DHT22;48278;52.704;6.536;2022-09-21T16:01:13;14.80;99.90
58339;DHT22;48278;52.704;6.536;2022-09-21T16:03:40;14.60;99.90
58339;DHT22;48278;52.704;6.536;2022-09-21T16:06:25;14.60;99.90
58339;DHT22;48278;52.704;6.536;2022-09-21T16:08:51;14.50;99.90
58339;DHT22;48278;52.704;6.536;2022-09-21T16:14:09;14.40;99.90
58339;DHT22;48278;52.704;6.536;2022-09-21T16:22:30;14.40;99.90
58339;DHT22;48278;52.704;6.536;2022-09-21T16:25:01;14.40;99.90
58339;DHT22;48278;52.704;6.536;2022-09-21T16:27:30;14.40;99.90
58339;DHT22;48278;52.704;6.536;2022-09-21T16:29:57;14.40;99.90
58339;DHT22;48278;52.704;6.536;2022-09-21T16:32:27;14.30;99.90
58339;DHT22;48278;52.704;6.536;2022-09-21T16:35:25;14.40;99.90
58339;DHT22;48278;52.704;6.536;2022-09-21T16:37:59;14.40;99.90
58339;DHT22;48278;52.704;6.536;2022-09-21T16:40:28;14.40;99.90
58339;DHT22;48278;52.704;6.536;2022-09-21T16:42:55;14.40;99.90
58339;DHT22;48278;52.704;6.536;2022-09-21T16:45:29;14.40;99.90
58339;DHT22;48278;52.704;6.536;2022-09-21T16:47:56;14.30;99.90
58339;DHT22;48278;52.704;6.536;2022-09-21T16:50:24;14.30;99.90
58339;DHT22;48278;52.704;6.536;2022-09-21T16:52:50;14.30;99.90
58339;DHT22;48278;52.704;6.536;2022-09-21T16:55:18;14.20;99.90
58339;DHT22;48278;52.704;6.536;2022-09-21T16:57:43;14.10;99.90
58339;DHT22;48278;52.704;6.536;2022-09-21T17:00:11;14.00;99.90
58339;DHT22;48278;52.704;6.536;2022-09-21T17:02:38;13.90;99.90
58339;DHT22;48278;52.704;6.536;2022-09-21T17:05:08;13.80;99.90
58339;DHT22;48278;52.704;6.536;2022-09-21T17:07:33;13.80;99.90
58339;DHT22;48278;52.704;6.536;2022-09-21T17:09:59;13.70;99.90
58339;DHT22;48278;52.704;6.536;2022-09-21T17:12:25;13.60;99.90
58339;DHT22;48278;52.704;6.536;2022-09-21T17:14:52;13.50;99.90
58339;DHT22;48278;52.704;6.536;2022-09-21T17:17:23;13.40;99.90
58339;DHT22;48278;52.704;6.536;2022-09-21T17:19:51;13.30;99.90
58339;DHT22;48278;52.704;6.536;2022-09-21T17:22:18;13.20;99.90
58339;DHT22;48278;52.704;6.536;2022-09-21T17:24:45;13.10;99.90
58339;DHT22;48278;52.704;6.536;2022-09-21T17:27:12;13.00;99.90
58339;DHT22;48278;52.704;6.536;2022-09-21T17:29:39;12.90;99.90
58339;DHT22;48278;52.704;6.536;2022-09-21T17:32:12;12.90;99.90
58339;DHT22;48278;52.704;6.536;2022-09-21T17:34:38;12.80;99.90
58339;DHT22;48278;52.704;6.536;2022-09-21T17:37:06;12.70;99.90
58339;DHT22;48278;52.704;6.536;2022-09-21T17:39:34;12.50;99.90
58339;DHT22;48278;52.704;6.536;2022-09-21T17:42:08;12.40;99.90
58339;DHT22;48278;52.704;6.536;2022-09-21T17:47:19;12.30;99.90
58339;DHT22;48278;52.704;6.536;2022-09-21T17:49:47;12.20;99.90
58339;DHT22;48278;52.704;6.536;2022-09-21T17:52:16;12.10;99.90
58339;DHT22;48278;52.704;6.536;2022-09-21T17:55:01;12.00;99.90
58339;DHT22;48278;52.704;6.536;2022-09-21T17:57:52;11.90;99.90
58339;DHT22;48278;52.704;6.536;2022-09-21T18:00:32;11.80;99.90
58339;DHT22;48278;52.704;6.536;2022-09-21T18:02:59;11.80;99.90
58339;DHT22;48278;52.704;6.536;2022-09-21T18:05:29;11.80;99.90
58339;DHT22;48278;52.704;6.536;2022-09-21T18:07:55;11.70;99.90
58339;DHT22;48278;52.704;6.536;2022-09-21T18:10:23;11.70;99.90
58339;DHT22;48278;52.704;6.536;2022-09-21T18:16:07;11.60;99.90
58339;DHT22;48278;52.704;6.536;2022-09-21T18:18:39;11.40;99.90
58339;DHT22;48278;52.704;6.536;2022-09-21T18:21:17;11.30;99.90
58339;DHT22;48278;52.704;6.536;2022-09-21T18:26:15;11.20;99.90
58339;DHT22;48278;52.704;6.536;2022-09-21T18:28:49;11.10;99.90
58339;DHT22;48278;52.704;6.536;2022-09-21T18:46:04;10.60;99.90
58339;DHT22;48278;52.704;6.536;2022-09-21T18:49:00;10.60;99.90
58339;DHT22;48278;52.704;6.536;2022-09-21T18:51:38;10.60;99.90
58339;DHT22;48278;52.704;6.536;2022-09-21T18:54:18;10.60;99.90
58339;DHT22;48278;52.704;6.536;2022-09-21T18:56:45;10.50;99.90
58339;DHT22;48278;52.704;6.536;2022-09-21T18:59:11;10.50;99.90
58339;DHT22;48278;52.704;6.536;2022-09-21T19:01:37;10.50;99.90
58339;DHT22;48278;52.704;6.536;2022-09-21T19:04:04;10.40;99.90
58339;DHT22;48278;52.704;6.536;2022-09-21T19:13:01;10.30;99.90
58339;DHT22;48278;52.704;6.536;2022-09-21T19:31:52;9.90;99.90
58339;DHT22;48278;52.704;6.536;2022-09-21T19:34:19;9.90;99.90
58339;DHT22;48278;52.704;6.536;2022-09-21T19:36:45;9.80;99.90
58339;DHT22;48278;52.704;6.536;2022-09-21T19:39:15;9.80;99.90